Iblea — IBFK — position and weather

sailwx.info

Track history (hours):
 
Tides and Currents Weather Stations Pressure Air Temp Water Temp Dewpoint Dewpoint Depression Visibility Wind Speed Wind Dir Waves Ship Positions

Iblea

Last reported at 2017-Jul-18 06:36 UTC. Time now 2017-Jul-21 22:55 UTC.
Position N 36°10' W 005°23'.

Length 176 m; draft 7.4 m.

Type: Ship (hazmat cat A). MMSI: 247087700.

Date/timePositionNaut miles runAvg speedWind from/ knotsBaromVisibWave heightAir tempDewpointWater temp
2017-Jul-18 06:36N 36°10' W 005°23'0 0.2
2017-Jul-18 06:30N 36°10' W 005°23'0 0.1
2017-Jul-18 06:00N 36°10' W 005°23'0 0.1
2017-Jul-18 05:30N 36°10' W 005°23'0 0.1
2017-Jul-18 04:57N 36°10' W 005°23'0 0.0
2017-Jul-18 04:30N 36°10' W 005°23'0 0.1
2017-Jul-18 04:00N 36°10' W 005°23'0 0.0
2017-Jul-18 03:30N 36°10' W 005°23'0 0.1
2017-Jul-18 03:00N 36°10' W 005°23'0 0.1
2017-Jul-18 02:30N 36°10' W 005°23'0 0.0
2017-Jul-18 02:00N 36°10' W 005°23'0 0.1
2017-Jul-18 01:30N 36°10' W 005°23'0 0.1
2017-Jul-18 01:00N 36°09' W 005°23'0 0.0
2017-Jul-18 00:30N 36°09' W 005°23'0 0.0
2017-Jul-18 00:00N 36°10' W 005°23'0 0.1
2017-Jul-17 23:27N 36°10' W 005°23'0 0.0
2017-Jul-17 23:00N 36°10' W 005°23'0 0.0
2017-Jul-17 22:30N 36°10' W 005°23'0 0.1
2017-Jul-17 21:57N 36°10' W 005°23'0 0.1
2017-Jul-17 21:30N 36°10' W 005°23'0 0.1
2017-Jul-17 21:00N 36°10' W 005°23'0 0.0
2017-Jul-17 20:27N 36°10' W 005°23'0 0.0
2017-Jul-17 20:00N 36°10' W 005°23'0 0.1
2017-Jul-17 19:27N 36°10' W 005°23'0 0.1
2017-Jul-17 19:00N 36°10' W 005°23'0 0.2
2017-Jul-17 18:30N 36°10' W 005°23'0 0.2
2017-Jul-17 18:00N 36°10' W 005°23'0 0.0
2017-Jul-17 17:30N 36°10' W 005°23'0 0.0
2017-Jul-17 17:00N 36°10' W 005°23'0 0.1
2017-Jul-17 16:24N 36°10' W 005°23'0 0.0
2017-Jul-17 14:29N 36°10' W 005°23'0 0.0
2017-Jul-17 13:58N 36°10' W 005°23'0 0.0
2017-Jul-17 13:30N 36°10' W 005°23'  
2017-Jul-13 23:17N 36°07' W 006°18'0 0.1
2017-Jul-13 22:48N 36°07' W 006°18'0 0.1
2017-Jul-13 21:27N 36°07' W 006°18'0 0.1
2017-Jul-13 18:52N 36°07' W 006°18'0 0.0
2017-Jul-13 18:25N 36°07' W 006°18'0 0.1
2017-Jul-13 17:58N 36°07' W 006°18'0 0.0
2017-Jul-13 17:21N 36°07' W 006°18'0 0.1
2017-Jul-13 17:00N 36°07' W 006°18'0 0.1
2017-Jul-13 16:30N 36°07' W 006°18'0 0.0
2017-Jul-13 16:00N 36°07' W 006°18'0 0.0
2017-Jul-13 15:27N 36°07' W 006°18'0 0.0
2017-Jul-13 15:00N 36°07' W 006°18'0 0.0
2017-Jul-13 14:30N 36°07' W 006°18'0 0.0
2017-Jul-13 14:00N 36°07' W 006°18'0 0.0
2017-Jul-13 13:30N 36°07' W 006°18'0 0.0
2017-Jul-13 13:00N 36°07' W 006°18'0 0.0
2017-Jul-13 12:30N 36°07' W 006°18'0 0.1
2017-Jul-13 10:48N 36°07' W 006°18'0 0.1
2017-Jul-13 10:15N 36°07' W 006°18'0 0.0
2017-Jul-13 08:11N 36°07' W 006°18'0 0.0
2017-Jul-12 08:03N 36°07' W 006°18'0 0.1
2017-Jul-12 07:57N 36°07' W 006°18'0 0.0
2017-Jul-12 07:18N 36°07' W 006°18'  
2017-Jul-08 09:48N 35°57' W 005°55'411.3
2017-Jul-08 09:28N 35°58' W 005°50'1011.0
2017-Jul-08 08:30N 35°58' W 005°37'5 9.2
2017-Jul-08 08:00N 35°59' W 005°32'5 9.1
2017-Jul-08 07:31N 36°00' W 005°27'4 8.6
2017-Jul-08 07:01N 36°01' W 005°21'  
Track history (hours):
 
Tides and Currents Weather Stations Pressure Air Temp Water Temp Dewpoint Dewpoint Depression Visibility Wind Speed Wind Dir Waves Ship Positions

Iblea

Last reported at 2017-Jul-18 06:36 UTC. Time now 2017-Jul-21 22:55 UTC.
Position N 36°10' W 005°23'.

Length 176 m; draft 7.4 m.

Type: Ship (hazmat cat A). MMSI: 247087700.

Date/timePositionNaut miles runAvg speedWind from/ knotsBaromVisibWave heightAir tempDewpointWater temp
2017-Jul-18 06:36N 36°10' W 005°23'0 0.2
2017-Jul-18 06:30N 36°10' W 005°23'0 0.1
2017-Jul-18 06:00N 36°10' W 005°23'0 0.1
2017-Jul-18 05:30N 36°10' W 005°23'0 0.1
2017-Jul-18 04:57N 36°10' W 005°23'0 0.0
2017-Jul-18 04:30N 36°10' W 005°23'0 0.1
2017-Jul-18 04:00N 36°10' W 005°23'0 0.0
2017-Jul-18 03:30N 36°10' W 005°23'0 0.1
2017-Jul-18 03:00N 36°10' W 005°23'0 0.1
2017-Jul-18 02:30N 36°10' W 005°23'0 0.0
2017-Jul-18 02:00N 36°10' W 005°23'0 0.1
2017-Jul-18 01:30N 36°10' W 005°23'0 0.1
2017-Jul-18 01:00N 36°09' W 005°23'0 0.0
2017-Jul-18 00:30N 36°09' W 005°23'0 0.0
2017-Jul-18 00:00N 36°10' W 005°23'0 0.1
2017-Jul-17 23:27N 36°10' W 005°23'0 0.0
2017-Jul-17 23:00N 36°10' W 005°23'0 0.0
2017-Jul-17 22:30N 36°10' W 005°23'0 0.1
2017-Jul-17 21:57N 36°10' W 005°23'0 0.1
2017-Jul-17 21:30N 36°10' W 005°23'0 0.1
2017-Jul-17 21:00N 36°10' W 005°23'0 0.0
2017-Jul-17 20:27N 36°10' W 005°23'0 0.0
2017-Jul-17 20:00N 36°10' W 005°23'0 0.1
2017-Jul-17 19:27N 36°10' W 005°23'0 0.1
2017-Jul-17 19:00N 36°10' W 005°23'0 0.2
2017-Jul-17 18:30N 36°10' W 005°23'0 0.2
2017-Jul-17 18:00N 36°10' W 005°23'0 0.0
2017-Jul-17 17:30N 36°10' W 005°23'0 0.0
2017-Jul-17 17:00N 36°10' W 005°23'0 0.1
2017-Jul-17 16:24N 36°10' W 005°23'0 0.0
2017-Jul-17 14:29N 36°10' W 005°23'0 0.0
2017-Jul-17 13:58N 36°10' W 005°23'0 0.0
2017-Jul-17 13:30N 36°10' W 005°23'  
2017-Jul-13 23:17N 36°07' W 006°18'0 0.1
2017-Jul-13 22:48N 36°07' W 006°18'0 0.1
2017-Jul-13 21:27N 36°07' W 006°18'0 0.1
2017-Jul-13 18:52N 36°07' W 006°18'0 0.0
2017-Jul-13 18:25N 36°07' W 006°18'0 0.1
2017-Jul-13 17:58N 36°07' W 006°18'0 0.0
2017-Jul-13 17:21N 36°07' W 006°18'0 0.1
2017-Jul-13 17:00N 36°07' W 006°18'0 0.1
2017-Jul-13 16:30N 36°07' W 006°18'0 0.0
2017-Jul-13 16:00N 36°07' W 006°18'0 0.0
2017-Jul-13 15:27N 36°07' W 006°18'0 0.0
2017-Jul-13 15:00N 36°07' W 006°18'0 0.0
2017-Jul-13 14:30N 36°07' W 006°18'0 0.0
2017-Jul-13 14:00N 36°07' W 006°18'0 0.0
2017-Jul-13 13:30N 36°07' W 006°18'0 0.0
2017-Jul-13 13:00N 36°07' W 006°18'0 0.0
2017-Jul-13 12:30N 36°07' W 006°18'0 0.1
2017-Jul-13 10:48N 36°07' W 006°18'0 0.1
2017-Jul-13 10:15N 36°07' W 006°18'0 0.0
2017-Jul-13 08:11N 36°07' W 006°18'0 0.0
2017-Jul-12 08:03N 36°07' W 006°18'0 0.1
2017-Jul-12 07:57N 36°07' W 006°18'0 0.0
2017-Jul-12 07:18N 36°07' W 006°18'  
2017-Jul-08 09:48N 35°57' W 005°55'411.3
2017-Jul-08 09:28N 35°58' W 005°50'1011.0
2017-Jul-08 08:30N 35°58' W 005°37'5 9.2
2017-Jul-08 08:00N 35°59' W 005°32'5 9.1
2017-Jul-08 07:31N 36°00' W 005°27'4 8.6
2017-Jul-08 07:01N 36°01' W 005°21'  

Dump ship's entire track history